This is the latest recevied weather packets stored in our database for station/object IZ2MHJ-3. If no packets are shown the sender has not sent any weather packets the latest 10 day(s).
| Time | Temp. | Humidity | Pressure | Rain* | Wind** | Luminosity | Snow |
|---|---|---|---|---|---|---|---|
| 1777965918 | 13.89° C | 83% | 1015.8 hPa | - | - | - | - |
| 1777964717 | 13.89° C | 77% | 1015.7 hPa | - | - | - | - |
| 1777963517 | 15° C | 75% | 1015.3 hPa | - | - | - | - |
| 1777962316 | 15.56° C | 70% | 1014.9 hPa | - | - | - | - |
| 1777961116 | 14.44° C | 71% | 1015 hPa | - | - | - | - |
| 1777959916 | 14.44° C | 67% | 1014.7 hPa | - | - | - | - |
| 1777958716 | 15° C | 67% | 1014.5 hPa | - | - | - | - |
| 1777957515 | 15° C | 63% | 1014.4 hPa | - | - | - | - |
| 1777956315 | 14.44° C | 67% | 1014.4 hPa | - | - | - | - |
| 1777955115 | 13.89° C | 66% | 1014.4 hPa | - | - | - | - |
| 1777953914 | 13.89° C | 64% | 1014.5 hPa | - | - | - | - |
| 1777952714 | 13.33° C | 66% | 1014.6 hPa | - | - | - | - |
| 1777951514 | 13.33° C | 65% | 1014.7 hPa | - | - | - | - |
| 1777950313 | 12.78° C | 66% | 1014.8 hPa | - | - | - | - |
| 1777949113 | 13.89° C | 64% | 1014.9 hPa | - | - | - | - |
| 1777947913 | 13.89° C | 63% | 1015 hPa | - | - | - | - |
| 1777946713 | 13.89° C | 62% | 1015.2 hPa | - | - | - | - |
| 1777945513 | 13.33° C | 63% | 1015.3 hPa | - | - | - | - |
| 1777944312 | 12.78° C | 66% | 1015.6 hPa | - | - | - | - |
| 1777943112 | 13.89° C | 60% | 1015.6 hPa | - | - | - | - |
| 1777941912 | 13.89° C | 62% | 1016 hPa | - | - | - | - |
| 1777940711 | 13.89° C | 60% | 1016.3 hPa | - | - | - | - |
| 1777939511 | 14.44° C | 59% | 1016.7 hPa | - | - | - | - |
| 1777938311 | 14.44° C | 59% | 1016.8 hPa | - | - | - | - |
| 1777937110 | 15° C | 57% | 1017 hPa | - | - | - | - |
* Rain since midnight (hover to see other rain measurements)
** Current wind speed in m/s (hover to see current wind gust speed)